sensor_id;sensor_type;location;lat;lon;timestamp;temperature;humidity
54898;DHT22;40800;52.704;6.398;2023-03-01T00:02:19;-1.10;99.90
54898;DHT22;40800;52.704;6.398;2023-03-01T00:04:45;-1.10;99.90
54898;DHT22;40800;52.704;6.398;2023-03-01T00:07:10;-1.10;99.90
54898;DHT22;40800;52.704;6.398;2023-03-01T00:09:37;-1.10;99.90
54898;DHT22;40800;52.704;6.398;2023-03-01T00:12:03;-1.10;99.90
54898;DHT22;40800;52.704;6.398;2023-03-01T00:14:29;-1.20;99.90
54898;DHT22;40800;52.704;6.398;2023-03-01T00:16:54;-1.20;99.90
54898;DHT22;40800;52.704;6.398;2023-03-01T00:19:20;-1.20;99.90
54898;DHT22;40800;52.704;6.398;2023-03-01T00:21:47;-1.20;99.90
54898;DHT22;40800;52.704;6.398;2023-03-01T00:24:13;-1.10;99.90
54898;DHT22;40800;52.704;6.398;2023-03-01T00:26:39;-1.10;99.90
54898;DHT22;40800;52.704;6.398;2023-03-01T00:29:05;-1.20;99.90
54898;DHT22;40800;52.704;6.398;2023-03-01T00:31:32;-1.30;99.90
54898;DHT22;40800;52.704;6.398;2023-03-01T00:34:01;-1.30;99.90
54898;DHT22;40800;52.704;6.398;2023-03-01T00:36:29;-1.20;99.90
54898;DHT22;40800;52.704;6.398;2023-03-01T00:38:55;-1.20;99.90
54898;DHT22;40800;52.704;6.398;2023-03-01T00:41:22;-1.20;99.90
54898;DHT22;40800;52.704;6.398;2023-03-01T00:43:49;-1.20;99.90
54898;DHT22;40800;52.704;6.398;2023-03-01T00:46:17;-1.20;99.90
54898;DHT22;40800;52.704;6.398;2023-03-01T00:48:44;-1.20;99.90
54898;DHT22;40800;52.704;6.398;2023-03-01T00:51:11;-1.20;99.90
54898;DHT22;40800;52.704;6.398;2023-03-01T00:53:37;-1.20;99.90
54898;DHT22;40800;52.704;6.398;2023-03-01T00:56:04;-1.10;99.90
54898;DHT22;40800;52.704;6.398;2023-03-01T00:58:30;-1.10;99.90
54898;DHT22;40800;52.704;6.398;2023-03-01T01:00:55;-1.10;99.90
54898;DHT22;40800;52.704;6.398;2023-03-01T01:03:22;-1.10;99.90
54898;DHT22;40800;52.704;6.398;2023-03-01T01:05:48;-1.10;99.90
54898;DHT22;40800;52.704;6.398;2023-03-01T01:08:14;-1.10;99.90
54898;DHT22;40800;52.704;6.398;2023-03-01T01:10:39;-1.10;99.90
54898;DHT22;40800;52.704;6.398;2023-03-01T01:13:05;-1.30;99.90
54898;DHT22;40800;52.704;6.398;2023-03-01T01:15:34;-1.80;99.90
54898;DHT22;40800;52.704;6.398;2023-03-01T01:18:00;-1.80;99.90
54898;DHT22;40800;52.704;6.398;2023-03-01T01:20:26;-1.80;99.90
54898;DHT22;40800;52.704;6.398;2023-03-01T01:22:52;-1.80;99.90
54898;DHT22;40800;52.704;6.398;2023-03-01T01:25:18;-1.80;99.90
54898;DHT22;40800;52.704;6.398;2023-03-01T01:27:43;-1.80;99.90
54898;DHT22;40800;52.704;6.398;2023-03-01T01:30:09;-1.80;99.90
54898;DHT22;40800;52.704;6.398;2023-03-01T01:32:35;-1.70;99.90
54898;DHT22;40800;52.704;6.398;2023-03-01T01:35:01;-1.70;99.90
54898;DHT22;40800;52.704;6.398;2023-03-01T01:37:26;-1.60;99.90
54898;DHT22;40800;52.704;6.398;2023-03-01T01:40:00;-1.60;99.90
54898;DHT22;40800;52.704;6.398;2023-03-01T01:42:29;-1.60;99.90
54898;DHT22;40800;52.704;6.398;2023-03-01T01:45:33;-1.60;99.90
54898;DHT22;40800;52.704;6.398;2023-03-01T01:48:04;-1.60;99.90
54898;DHT22;40800;52.704;6.398;2023-03-01T01:50:33;-1.60;99.90
54898;DHT22;40800;52.704;6.398;2023-03-01T01:53:06;-1.60;99.90
54898;DHT22;40800;52.704;6.398;2023-03-01T01:55:32;-1.80;99.90
54898;DHT22;40800;52.704;6.398;2023-03-01T01:58:01;-1.60;99.90
54898;DHT22;40800;52.704;6.398;2023-03-01T02:00:29;-1.80;99.90
54898;DHT22;40800;52.704;6.398;2023-03-01T02:02:57;-1.90;99.90
54898;DHT22;40800;52.704;6.398;2023-03-01T02:08:04;-1.80;99.90
54898;DHT22;40800;52.704;6.398;2023-03-01T02:10:32;-1.80;99.90
54898;DHT22;40800;52.704;6.398;2023-03-01T02:13:00;-1.80;99.90
54898;DHT22;40800;52.704;6.398;2023-03-01T02:15:26;-1.80;99.90
54898;DHT22;40800;52.704;6.398;2023-03-01T02:17:53;-1.80;99.90
54898;DHT22;40800;52.704;6.398;2023-03-01T02:20:23;-1.70;99.90
54898;DHT22;40800;52.704;6.398;2023-03-01T02:22:52;-1.60;99.90
54898;DHT22;40800;52.704;6.398;2023-03-01T02:30:36;-1.60;99.90
54898;DHT22;40800;52.704;6.398;2023-03-01T02:33:03;-1.70;99.90
54898;DHT22;40800;52.704;6.398;2023-03-01T02:35:32;-1.70;99.90
54898;DHT22;40800;52.704;6.398;2023-03-01T02:38:01;-1.80;99.90
54898;DHT22;40800;52.704;6.398;2023-03-01T02:40:31;-2.20;99.90
54898;DHT22;40800;52.704;6.398;2023-03-01T02:42:59;-2.20;99.90
54898;DHT22;40800;52.704;6.398;2023-03-01T02:45:26;-2.20;99.90
54898;DHT22;40800;52.704;6.398;2023-03-01T02:47:56;-2.10;99.90
54898;DHT22;40800;52.704;6.398;2023-03-01T02:50:56;-2.10;99.90
54898;DHT22;40800;52.704;6.398;2023-03-01T02:53:42;-2.10;99.90
54898;DHT22;40800;52.704;6.398;2023-03-01T02:56:10;-2.00;99.90
54898;DHT22;40800;52.704;6.398;2023-03-01T02:58:41;-1.90;99.90
54898;DHT22;40800;52.704;6.398;2023-03-01T03:01:11;-1.80;99.90
54898;DHT22;40800;52.704;6.398;2023-03-01T03:03:36;-1.80;99.90
54898;DHT22;40800;52.704;6.398;2023-03-01T03:06:02;-1.80;99.90
54898;DHT22;40800;52.704;6.398;2023-03-01T03:08:28;-1.80;99.90
54898;DHT22;40800;52.704;6.398;2023-03-01T03:10:53;-1.80;99.90
54898;DHT22;40800;52.704;6.398;2023-03-01T03:13:19;-1.80;99.90
54898;DHT22;40800;52.704;6.398;2023-03-01T03:15:45;-1.80;99.90
54898;DHT22;40800;52.704;6.398;2023-03-01T03:18:13;-1.80;99.90
54898;DHT22;40800;52.704;6.398;2023-03-01T03:20:41;-1.90;99.90
54898;DHT22;40800;52.704;6.398;2023-03-01T03:23:07;-1.90;99.90
54898;DHT22;40800;52.704;6.398;2023-03-01T03:25:33;-1.80;99.90
54898;DHT22;40800;52.704;6.398;2023-03-01T03:28:03;-2.00;99.90
54898;DHT22;40800;52.704;6.398;2023-03-01T03:30:36;-1.90;99.90
54898;DHT22;40800;52.704;6.398;2023-03-01T03:33:05;-1.90;99.90
54898;DHT22;40800;52.704;6.398;2023-03-01T03:35:33;-1.80;99.90
54898;DHT22;40800;52.704;6.398;2023-03-01T03:38:01;-1.80;99.90
54898;DHT22;40800;52.704;6.398;2023-03-01T03:40:28;-1.70;99.90
54898;DHT22;40800;52.704;6.398;2023-03-01T03:42:54;-1.70;99.90
54898;DHT22;40800;52.704;6.398;2023-03-01T03:45:20;-1.70;99.90
54898;DHT22;40800;52.704;6.398;2023-03-01T03:47:46;-1.80;99.90
54898;DHT22;40800;52.704;6.398;2023-03-01T03:50:13;-1.80;99.90
54898;DHT22;40800;52.704;6.398;2023-03-01T03:52:39;-2.00;99.90
54898;DHT22;40800;52.704;6.398;2023-03-01T03:55:06;-2.00;99.90
54898;DHT22;40800;52.704;6.398;2023-03-01T03:57:40;-2.00;99.90
54898;DHT22;40800;52.704;6.398;2023-03-01T04:00:09;-2.00;99.90
54898;DHT22;40800;52.704;6.398;2023-03-01T04:02:39;-1.90;99.90
54898;DHT22;40800;52.704;6.398;2023-03-01T04:05:06;-1.90;99.90
54898;DHT22;40800;52.704;6.398;2023-03-01T04:07:31;-1.90;99.90
54898;DHT22;40800;52.704;6.398;2023-03-01T04:09:57;-2.00;99.90
54898;DHT22;40800;52.704;6.398;2023-03-01T04:12:23;-2.20;99.90
54898;DHT22;40800;52.704;6.398;2023-03-01T04:14:48;-2.30;99.90
54898;DHT22;40800;52.704;6.398;2023-03-01T04:17:14;-2.20;99.90
54898;DHT22;40800;52.704;6.398;2023-03-01T04:19:39;-1.80;99.90
54898;DHT22;40800;52.704;6.398;2023-03-01T04:22:05;-2.40;99.90
54898;DHT22;40800;52.704;6.398;2023-03-01T04:24:37;-2.40;99.90
54898;DHT22;40800;52.704;6.398;2023-03-01T04:27:03;-2.40;99.90
54898;DHT22;40800;52.704;6.398;2023-03-01T04:29:28;-2.40;99.90
54898;DHT22;40800;52.704;6.398;2023-03-01T04:31:54;-2.60;99.90
54898;DHT22;40800;52.704;6.398;2023-03-01T04:34:20;-2.60;99.90
54898;DHT22;40800;52.704;6.398;2023-03-01T04:36:45;-2.60;99.90
54898;DHT22;40800;52.704;6.398;2023-03-01T04:39:11;-2.50;99.90
54898;DHT22;40800;52.704;6.398;2023-03-01T04:41:39;-2.40;99.90
54898;DHT22;40800;52.704;6.398;2023-03-01T04:44:06;-2.30;99.90
54898;DHT22;40800;52.704;6.398;2023-03-01T04:46:32;-2.30;99.90
54898;DHT22;40800;52.704;6.398;2023-03-01T04:48:58;-2.40;99.90
54898;DHT22;40800;52.704;6.398;2023-03-01T04:51:23;-2.50;99.90
54898;DHT22;40800;52.704;6.398;2023-03-01T04:53:49;-2.80;99.90
54898;DHT22;40800;52.704;6.398;2023-03-01T04:56:15;-3.00;99.90
54898;DHT22;40800;52.704;6.398;2023-03-01T04:58:43;-3.30;99.90
54898;DHT22;40800;52.704;6.398;2023-03-01T05:01:11;-3.50;99.90
54898;DHT22;40800;52.704;6.398;2023-03-01T05:03:44;-3.80;99.90
54898;DHT22;40800;52.704;6.398;2023-03-01T05:06:10;-3.90;99.90
54898;DHT22;40800;52.704;6.398;2023-03-01T05:08:37;-4.00;99.90
54898;DHT22;40800;52.704;6.398;2023-03-01T05:11:04;-3.90;99.90
54898;DHT22;40800;52.704;6.398;2023-03-01T05:13:29;-3.70;99.90
54898;DHT22;40800;52.704;6.398;2023-03-01T05:16:00;-3.50;99.90
54898;DHT22;40800;52.704;6.398;2023-03-01T05:18:27;-3.40;99.90
54898;DHT22;40800;52.704;6.398;2023-03-01T05:20:54;-3.30;99.90
54898;DHT22;40800;52.704;6.398;2023-03-01T05:23:24;-3.20;99.90
54898;DHT22;40800;52.704;6.398;2023-03-01T05:25:49;-3.10;99.90
54898;DHT22;40800;52.704;6.398;2023-03-01T05:28:18;-3.00;99.90
54898;DHT22;40800;52.704;6.398;2023-03-01T05:30:44;-3.00;99.90
54898;DHT22;40800;52.704;6.398;2023-03-01T05:33:10;-3.00;99.90
54898;DHT22;40800;52.704;6.398;2023-03-01T05:35:43;-3.10;99.90
54898;DHT22;40800;52.704;6.398;2023-03-01T05:38:10;-3.10;99.90
54898;DHT22;40800;52.704;6.398;2023-03-01T05:40:39;-3.00;99.90
54898;DHT22;40800;52.704;6.398;2023-03-01T05:43:05;-3.00;99.90
54898;DHT22;40800;52.704;6.398;2023-03-01T05:45:31;-3.00;99.90
54898;DHT22;40800;52.704;6.398;2023-03-01T05:47:58;-2.90;99.90
54898;DHT22;40800;52.704;6.398;2023-03-01T05:50:29;-3.00;99.90
54898;DHT22;40800;52.704;6.398;2023-03-01T05:53:03;-2.90;99.90
54898;DHT22;40800;52.704;6.398;2023-03-01T05:55:31;-2.90;99.90
54898;DHT22;40800;52.704;6.398;2023-03-01T05:58:05;-2.90;99.90
54898;DHT22;40800;52.704;6.398;2023-03-01T06:00:31;-2.80;99.90
54898;DHT22;40800;52.704;6.398;2023-03-01T06:02:58;-2.80;99.90
54898;DHT22;40800;52.704;6.398;2023-03-01T06:05:24;-2.80;99.90
54898;DHT22;40800;52.704;6.398;2023-03-01T06:07:50;-2.90;99.90
54898;DHT22;40800;52.704;6.398;2023-03-01T06:10:17;-2.90;99.90
54898;DHT22;40800;52.704;6.398;2023-03-01T06:12:44;-2.90;99.90
54898;DHT22;40800;52.704;6.398;2023-03-01T06:15:14;-2.90;99.90
54898;DHT22;40800;52.704;6.398;2023-03-01T06:17:42;-2.90;99.90
54898;DHT22;40800;52.704;6.398;2023-03-01T06:20:14;-2.90;99.90
54898;DHT22;40800;52.704;6.398;2023-03-01T06:22:40;-2.90;99.90
54898;DHT22;40800;52.704;6.398;2023-03-01T06:25:07;-3.00;99.90
54898;DHT22;40800;52.704;6.398;2023-03-01T06:27:33;-2.90;99.90
54898;DHT22;40800;52.704;6.398;2023-03-01T06:29:59;-2.90;99.90
54898;DHT22;40800;52.704;6.398;2023-03-01T06:32:25;-2.90;99.90
54898;DHT22;40800;52.704;6.398;2023-03-01T06:34:50;-2.80;99.90
54898;DHT22;40800;52.704;6.398;2023-03-01T06:37:16;-2.80;99.90
54898;DHT22;40800;52.704;6.398;2023-03-01T06:39:42;-2.80;99.90
54898;DHT22;40800;52.704;6.398;2023-03-01T06:42:08;-2.80;99.90
54898;DHT22;40800;52.704;6.398;2023-03-01T06:44:36;-2.70;99.90
54898;DHT22;40800;52.704;6.398;2023-03-01T06:47:02;-2.70;99.90
54898;DHT22;40800;52.704;6.398;2023-03-01T06:49:28;-2.70;99.90
54898;DHT22;40800;52.704;6.398;2023-03-01T06:51:54;-2.70;99.90
54898;DHT22;40800;52.704;6.398;2023-03-01T06:54:19;-2.60;99.90
54898;DHT22;40800;52.704;6.398;2023-03-01T06:56:48;-2.60;99.90
54898;DHT22;40800;52.704;6.398;2023-03-01T06:59:14;-2.60;99.90
54898;DHT22;40800;52.704;6.398;2023-03-01T07:01:39;-2.60;99.90
54898;DHT22;40800;52.704;6.398;2023-03-01T07:04:05;-2.60;99.90
54898;DHT22;40800;52.704;6.398;2023-03-01T07:06:31;-2.60;99.90
54898;DHT22;40800;52.704;6.398;2023-03-01T07:08:56;-2.50;99.90
54898;DHT22;40800;52.704;6.398;2023-03-01T07:11:22;-2.30;99.90
54898;DHT22;40800;52.704;6.398;2023-03-01T07:13:48;-2.30;99.90
54898;DHT22;40800;52.704;6.398;2023-03-01T07:16:14;-2.10;99.90
54898;DHT22;40800;52.704;6.398;2023-03-01T07:18:40;-2.10;99.90
54898;DHT22;40800;52.704;6.398;2023-03-01T07:21:07;-2.10;99.90
54898;DHT22;40800;52.704;6.398;2023-03-01T07:23:33;-2.00;99.90
54898;DHT22;40800;52.704;6.398;2023-03-01T07:26:00;-2.00;99.90
54898;DHT22;40800;52.704;6.398;2023-03-01T07:28:26;-1.80;99.90
54898;DHT22;40800;52.704;6.398;2023-03-01T07:30:53;-1.70;99.90
54898;DHT22;40800;52.704;6.398;2023-03-01T07:33:19;-1.50;99.90
54898;DHT22;40800;52.704;6.398;2023-03-01T07:35:44;-1.40;99.90
54898;DHT22;40800;52.704;6.398;2023-03-01T07:38:10;-1.30;99.90
54898;DHT22;40800;52.704;6.398;2023-03-01T07:40:36;-1.30;99.90
54898;DHT22;40800;52.704;6.398;2023-03-01T07:43:01;-1.20;99.90
54898;DHT22;40800;52.704;6.398;2023-03-01T07:45:27;-1.10;99.90
54898;DHT22;40800;52.704;6.398;2023-03-01T07:47:54;-1.00;99.90
54898;DHT22;40800;52.704;6.398;2023-03-01T07:50:20;-0.90;99.90
54898;DHT22;40800;52.704;6.398;2023-03-01T07:52:47;-0.80;99.90
54898;DHT22;40800;52.704;6.398;2023-03-01T07:55:13;-0.70;99.90
54898;DHT22;40800;52.704;6.398;2023-03-01T07:57:39;-0.50;99.90
54898;DHT22;40800;52.704;6.398;2023-03-01T08:00:06;-0.40;99.90
54898;DHT22;40800;52.704;6.398;2023-03-01T08:02:32;-0.30;99.90
54898;DHT22;40800;52.704;6.398;2023-03-01T08:04:57;0.00;99.90
54898;DHT22;40800;52.704;6.398;2023-03-01T08:07:23;0.20;99.90
54898;DHT22;40800;52.704;6.398;2023-03-01T08:09:49;0.40;99.90
54898;DHT22;40800;52.704;6.398;2023-03-01T08:12:14;0.60;99.90
54898;DHT22;40800;52.704;6.398;2023-03-01T08:14:42;0.80;99.90
54898;DHT22;40800;52.704;6.398;2023-03-01T08:17:08;0.80;99.90
54898;DHT22;40800;52.704;6.398;2023-03-01T08:19:33;0.90;99.90
54898;DHT22;40800;52.704;6.398;2023-03-01T08:22:01;1.00;99.90
54898;DHT22;40800;52.704;6.398;2023-03-01T08:24:27;1.10;99.90
54898;DHT22;40800;52.704;6.398;2023-03-01T08:26:53;1.20;99.90
54898;DHT22;40800;52.704;6.398;2023-03-01T08:29:19;1.30;99.90
54898;DHT22;40800;52.704;6.398;2023-03-01T08:31:44;1.30;99.90
54898;DHT22;40800;52.704;6.398;2023-03-01T08:34:12;1.40;99.90
54898;DHT22;40800;52.704;6.398;2023-03-01T08:36:40;1.50;99.90
54898;DHT22;40800;52.704;6.398;2023-03-01T08:39:07;1.60;99.90
54898;DHT22;40800;52.704;6.398;2023-03-01T08:41:34;1.70;99.90
54898;DHT22;40800;52.704;6.398;2023-03-01T08:43:59;1.80;99.90
54898;DHT22;40800;52.704;6.398;2023-03-01T08:46:34;1.90;99.90
54898;DHT22;40800;52.704;6.398;2023-03-01T08:49:04;2.00;99.90
54898;DHT22;40800;52.704;6.398;2023-03-01T08:51:30;2.30;99.90
54898;DHT22;40800;52.704;6.398;2023-03-01T08:53:57;2.30;99.90
54898;DHT22;40800;52.704;6.398;2023-03-01T08:56:23;2.50;99.90
54898;DHT22;40800;52.704;6.398;2023-03-01T08:58:49;2.60;99.90
54898;DHT22;40800;52.704;6.398;2023-03-01T09:01:17;2.70;99.90
54898;DHT22;40800;52.704;6.398;2023-03-01T09:03:43;2.80;99.90
54898;DHT22;40800;52.704;6.398;2023-03-01T09:06:10;3.00;99.90
54898;DHT22;40800;52.704;6.398;2023-03-01T09:08:38;3.10;99.90
54898;DHT22;40800;52.704;6.398;2023-03-01T09:11:05;3.20;99.90
54898;DHT22;40800;52.704;6.398;2023-03-01T09:13:32;3.60;99.90
54898;DHT22;40800;52.704;6.398;2023-03-01T09:15:59;3.70;99.90
54898;DHT22;40800;52.704;6.398;2023-03-01T09:18:25;3.90;99.90
54898;DHT22;40800;52.704;6.398;2023-03-01T09:20:51;4.10;99.90
54898;DHT22;40800;52.704;6.398;2023-03-01T09:23:17;4.30;99.90
54898;DHT22;40800;52.704;6.398;2023-03-01T09:25:42;4.60;99.90
54898;DHT22;40800;52.704;6.398;2023-03-01T09:28:08;4.90;99.90
54898;DHT22;40800;52.704;6.398;2023-03-01T09:30:33;5.10;99.90
54898;DHT22;40800;52.704;6.398;2023-03-01T09:32:59;5.30;99.90
54898;DHT22;40800;52.704;6.398;2023-03-01T09:35:25;5.40;99.90
54898;DHT22;40800;52.704;6.398;2023-03-01T09:37:51;5.60;99.90
54898;DHT22;40800;52.704;6.398;2023-03-01T09:40:19;5.80;99.90
54898;DHT22;40800;52.704;6.398;2023-03-01T09:42:51;6.00;99.90
54898;DHT22;40800;52.704;6.398;2023-03-01T09:45:34;6.20;51.30
54898;DHT22;40800;52.704;6.398;2023-03-01T09:48:00;6.50;1.00
54898;DHT22;40800;52.704;6.398;2023-03-01T09:50:33;6.60;99.90
54898;DHT22;40800;52.704;6.398;2023-03-01T09:53:13;6.70;99.90
54898;DHT22;40800;52.704;6.398;2023-03-01T09:56:21;6.80;99.90
54898;DHT22;40800;52.704;6.398;2023-03-01T10:06:41;7.20;99.90
54898;DHT22;40800;52.704;6.398;2023-03-01T10:09:14;7.20;99.90
54898;DHT22;40800;52.704;6.398;2023-03-01T10:11:52;7.30;99.90
54898;DHT22;40800;52.704;6.398;2023-03-01T10:17:27;7.30;99.90
54898;DHT22;40800;52.704;6.398;2023-03-01T10:19:50;7.40;99.90
54898;DHT22;40800;52.704;6.398;2023-03-01T10:24:42;7.60;99.90
54898;DHT22;40800;52.704;6.398;2023-03-01T10:27:22;8.10;99.90
54898;DHT22;40800;52.704;6.398;2023-03-01T10:32:33;7.80;11.70
54898;DHT22;40800;52.704;6.398;2023-03-01T10:34:58;7.90;11.70
54898;DHT22;40800;52.704;6.398;2023-03-01T10:37:24;8.10;1.00
54898;DHT22;40800;52.704;6.398;2023-03-01T10:40:04;8.10;13.10
54898;DHT22;40800;52.704;6.398;2023-03-01T10:42:38;8.30;1.00
54898;DHT22;40800;52.704;6.398;2023-03-01T10:45:32;8.50;1.00
54898;DHT22;40800;52.704;6.398;2023-03-01T10:48:06;8.70;1.00
54898;DHT22;40800;52.704;6.398;2023-03-01T10:50:35;8.70;1.00
54898;DHT22;40800;52.704;6.398;2023-03-01T10:53:03;8.80;99.90
54898;DHT22;40800;52.704;6.398;2023-03-01T10:55:36;8.90;99.90
54898;DHT22;40800;52.704;6.398;2023-03-01T11:00:50;9.00;99.90
54898;DHT22;40800;52.704;6.398;2023-03-01T11:03:21;9.00;99.90
54898;DHT22;40800;52.704;6.398;2023-03-01T11:06:37;9.00;99.90
54898;DHT22;40800;52.704;6.398;2023-03-01T11:08:48;9.30;99.90
54898;DHT22;40800;52.704;6.398;2023-03-01T11:21:35;9.50;99.90
54898;DHT22;40800;52.704;6.398;2023-03-01T11:24:04;9.40;99.90
54898;DHT22;40800;52.704;6.398;2023-03-01T11:26:34;9.50;99.90
54898;DHT22;40800;52.704;6.398;2023-03-01T11:29:05;9.60;99.90
54898;DHT22;40800;52.704;6.398;2023-03-01T11:31:33;9.50;99.90
54898;DHT22;40800;52.704;6.398;2023-03-01T11:34:01;9.50;99.90
54898;DHT22;40800;52.704;6.398;2023-03-01T11:39:05;9.50;99.90
54898;DHT22;40800;52.704;6.398;2023-03-01T11:41:39;9.60;99.90
54898;DHT22;40800;52.704;6.398;2023-03-01T11:44:15;9.80;99.90
54898;DHT22;40800;52.704;6.398;2023-03-01T12:06:25;10.10;83.90
54898;DHT22;40800;52.704;6.398;2023-03-01T12:08:56;10.10;91.50
54898;DHT22;40800;52.704;6.398;2023-03-01T12:11:39;10.20;94.90
54898;DHT22;40800;52.704;6.398;2023-03-01T12:26:35;10.90;28.90
54898;DHT22;40800;52.704;6.398;2023-03-01T12:29:20;10.90;25.80
54898;DHT22;40800;52.704;6.398;2023-03-01T12:37:09;12.70;99.90
54898;DHT22;40800;52.704;6.398;2023-03-01T12:42:31;12.50;25.50
54898;DHT22;40800;52.704;6.398;2023-03-01T12:45:29;12.10;12.30
54898;DHT22;40800;52.704;6.398;2023-03-01T12:50:43;11.80;5.60
54898;DHT22;40800;52.704;6.398;2023-03-01T12:53:26;11.90;9.90
54898;DHT22;40800;52.704;6.398;2023-03-01T12:55:56;12.00;12.10
54898;DHT22;40800;52.704;6.398;2023-03-01T13:01:52;12.40;2.00
54898;DHT22;40800;52.704;6.398;2023-03-01T13:04:37;12.20;1.00
54898;DHT22;40800;52.704;6.398;2023-03-01T13:17:54;11.60;1.00
54898;DHT22;40800;52.704;6.398;2023-03-01T13:20:23;11.40;1.00
54898;DHT22;40800;52.704;6.398;2023-03-01T13:23:02;11.40;1.00
54898;DHT22;40800;52.704;6.398;2023-03-01T13:25:28;11.40;1.00
54898;DHT22;40800;52.704;6.398;2023-03-01T13:31:45;11.40;1.00
54898;DHT22;40800;52.704;6.398;2023-03-01T13:34:00;11.30;1.00
54898;DHT22;40800;52.704;6.398;2023-03-01T13:52:37;12.20;1.00
54898;DHT22;40800;52.704;6.398;2023-03-01T13:55:46;12.20;1.00
54898;DHT22;40800;52.704;6.398;2023-03-01T14:01:02;12.70;1.00
54898;DHT22;40800;52.704;6.398;2023-03-01T14:03:30;12.50;1.00
54898;DHT22;40800;52.704;6.398;2023-03-01T14:06:19;12.20;1.00
54898;DHT22;40800;52.704;6.398;2023-03-01T14:08:47;11.90;1.00
54898;DHT22;40800;52.704;6.398;2023-03-01T14:14:34;11.60;1.00
54898;DHT22;40800;52.704;6.398;2023-03-01T14:19:58;11.70;1.00
54898;DHT22;40800;52.704;6.398;2023-03-01T14:22:29;12.20;1.00
54898;DHT22;40800;52.704;6.398;2023-03-01T14:24:58;12.50;1.00
54898;DHT22;40800;52.704;6.398;2023-03-01T14:27:38;12.70;1.00
54898;DHT22;40800;52.704;6.398;2023-03-01T14:30:26;12.80;1.00
54898;DHT22;40800;52.704;6.398;2023-03-01T14:33:00;13.00;1.00
54898;DHT22;40800;52.704;6.398;2023-03-01T14:35:31;13.00;1.00
54898;DHT22;40800;52.704;6.398;2023-03-01T14:37:58;12.80;1.00
54898;DHT22;40800;52.704;6.398;2023-03-01T14:40:35;12.50;1.00
54898;DHT22;40800;52.704;6.398;2023-03-01T14:43:08;12.40;1.00
54898;DHT22;40800;52.704;6.398;2023-03-01T14:45:35;12.10;1.00
54898;DHT22;40800;52.704;6.398;2023-03-01T14:48:02;12.00;1.00
54898;DHT22;40800;52.704;6.398;2023-03-01T14:50:31;12.00;1.00
54898;DHT22;40800;52.704;6.398;2023-03-01T14:53:03;12.10;1.00
54898;DHT22;40800;52.704;6.398;2023-03-01T14:57:56;12.00;1.00
54898;DHT22;40800;52.704;6.398;2023-03-01T15:00:25;11.90;1.00
54898;DHT22;40800;52.704;6.398;2023-03-01T15:02:53;11.90;1.00
54898;DHT22;40800;52.704;6.398;2023-03-01T15:05:29;12.00;1.00
54898;DHT22;40800;52.704;6.398;2023-03-01T15:07:58;12.20;1.00
54898;DHT22;40800;52.704;6.398;2023-03-01T15:10:29;12.10;1.00
54898;DHT22;40800;52.704;6.398;2023-03-01T15:12:55;12.20;1.00
54898;DHT22;40800;52.704;6.398;2023-03-01T15:17:52;12.10;1.00
54898;DHT22;40800;52.704;6.398;2023-03-01T15:20:22;12.00;1.00
54898;DHT22;40800;52.704;6.398;2023-03-01T15:22:51;12.10;1.00
54898;DHT22;40800;52.704;6.398;2023-03-01T15:25:28;12.10;1.00
54898;DHT22;40800;52.704;6.398;2023-03-01T15:27:55;12.30;1.00
54898;DHT22;40800;52.704;6.398;2023-03-01T15:30:33;12.50;1.00
54898;DHT22;40800;52.704;6.398;2023-03-01T15:33:40;13.10;1.00
54898;DHT22;40800;52.704;6.398;2023-03-01T15:36:39;13.50;1.00
54898;DHT22;40800;52.704;6.398;2023-03-01T15:41:51;13.50;1.00
54898;DHT22;40800;52.704;6.398;2023-03-01T15:44:28;13.70;1.00
54898;DHT22;40800;52.704;6.398;2023-03-01T15:46:54;14.00;1.00
54898;DHT22;40800;52.704;6.398;2023-03-01T15:49:40;14.00;1.00
54898;DHT22;40800;52.704;6.398;2023-03-01T15:52:25;14.00;1.00
54898;DHT22;40800;52.704;6.398;2023-03-01T15:54:56;13.60;1.00
54898;DHT22;40800;52.704;6.398;2023-03-01T15:57:22;13.20;1.00
54898;DHT22;40800;52.704;6.398;2023-03-01T15:59:48;12.80;1.00
54898;DHT22;40800;52.704;6.398;2023-03-01T16:02:14;12.60;1.00
54898;DHT22;40800;52.704;6.398;2023-03-01T16:04:40;12.70;1.00
54898;DHT22;40800;52.704;6.398;2023-03-01T16:07:06;12.90;1.00
54898;DHT22;40800;52.704;6.398;2023-03-01T16:09:31;13.30;1.00
54898;DHT22;40800;52.704;6.398;2023-03-01T16:11:57;13.40;1.00
54898;DHT22;40800;52.704;6.398;2023-03-01T16:14:23;13.80;1.00
54898;DHT22;40800;52.704;6.398;2023-03-01T16:16:49;14.10;1.00
54898;DHT22;40800;52.704;6.398;2023-03-01T16:19:15;14.20;1.00
54898;DHT22;40800;52.704;6.398;2023-03-01T16:21:42;14.00;1.00
54898;DHT22;40800;52.704;6.398;2023-03-01T16:24:12;13.70;1.00
54898;DHT22;40800;52.704;6.398;2023-03-01T16:26:38;13.50;1.00
54898;DHT22;40800;52.704;6.398;2023-03-01T16:29:03;13.30;1.00
54898;DHT22;40800;52.704;6.398;2023-03-01T16:31:29;12.90;99.90
54898;DHT22;40800;52.704;6.398;2023-03-01T16:33:57;12.60;99.90
54898;DHT22;40800;52.704;6.398;2023-03-01T16:36:23;12.20;99.90
54898;DHT22;40800;52.704;6.398;2023-03-01T16:38:51;12.00;99.90
54898;DHT22;40800;52.704;6.398;2023-03-01T16:41:18;11.90;99.90
54898;DHT22;40800;52.704;6.398;2023-03-01T16:43:44;12.00;99.90
54898;DHT22;40800;52.704;6.398;2023-03-01T16:46:17;11.80;99.90
54898;DHT22;40800;52.704;6.398;2023-03-01T16:48:43;11.80;99.90
54898;DHT22;40800;52.704;6.398;2023-03-01T16:51:09;12.00;1.00
54898;DHT22;40800;52.704;6.398;2023-03-01T16:53:36;12.10;1.00
54898;DHT22;40800;52.704;6.398;2023-03-01T16:56:05;12.00;99.90
54898;DHT22;40800;52.704;6.398;2023-03-01T16:58:31;11.90;99.90
54898;DHT22;40800;52.704;6.398;2023-03-01T17:01:07;11.80;99.90
54898;DHT22;40800;52.704;6.398;2023-03-01T17:03:33;11.50;99.90
54898;DHT22;40800;52.704;6.398;2023-03-01T17:06:05;11.60;99.90
54898;DHT22;40800;52.704;6.398;2023-03-01T17:08:31;11.20;99.90
54898;DHT22;40800;52.704;6.398;2023-03-01T17:11:03;10.90;99.90
54898;DHT22;40800;52.704;6.398;2023-03-01T17:13:28;10.70;99.90
54898;DHT22;40800;52.704;6.398;2023-03-01T17:15:54;10.40;99.90
54898;DHT22;40800;52.704;6.398;2023-03-01T17:18:20;10.20;99.90
54898;DHT22;40800;52.704;6.398;2023-03-01T17:20:45;10.00;99.90
54898;DHT22;40800;52.704;6.398;2023-03-01T17:23:11;9.90;99.90
54898;DHT22;40800;52.704;6.398;2023-03-01T17:25:44;9.70;1.00
54898;DHT22;40800;52.704;6.398;2023-03-01T17:28:11;9.50;1.00
54898;DHT22;40800;52.704;6.398;2023-03-01T17:30:36;9.30;1.00
54898;DHT22;40800;52.704;6.398;2023-03-01T17:33:02;9.20;1.00
54898;DHT22;40800;52.704;6.398;2023-03-01T17:35:28;9.00;1.00
54898;DHT22;40800;52.704;6.398;2023-03-01T17:37:53;8.80;1.00
54898;DHT22;40800;52.704;6.398;2023-03-01T17:40:19;8.70;1.00
54898;DHT22;40800;52.704;6.398;2023-03-01T17:42:45;8.50;1.00
54898;DHT22;40800;52.704;6.398;2023-03-01T17:45:10;8.60;1.00
54898;DHT22;40800;52.704;6.398;2023-03-01T17:47:36;8.20;1.00
54898;DHT22;40800;52.704;6.398;2023-03-01T17:50:02;8.10;1.00
54898;DHT22;40800;52.704;6.398;2023-03-01T17:52:30;7.90;1.00
54898;DHT22;40800;52.704;6.398;2023-03-01T17:54:55;7.80;1.00
54898;DHT22;40800;52.704;6.398;2023-03-01T17:57:21;7.60;1.00
54898;DHT22;40800;52.704;6.398;2023-03-01T17:59:46;7.50;1.00
54898;DHT22;40800;52.704;6.398;2023-03-01T18:02:12;7.40;1.00